Mount Auburn, Kentucky
Current Conditions -  °F | °C
As of 8:53 PM on Wednesday 26 Nov 2014 (Local Time) from KLUK Reporting Station
Clear Clear  
Wind Chill: 29°   Ceiling: Unl
Heat Index: 33°   Visibility: 9mi
Dew Point: 26°   Wind: 5mph
Humidity: 75%   Direction: 20°NNE
Pressure: 30.07"   Gusts: NA
Location:  38.7935°N, 84.3267°W
Report Text: KLUK 270153Z 02004KT 9SM CLR 01/M03 A3007 RMK AO2 SLP187 T00061033
Loading
Personal Weather Stations






























Interactive Weather Map New forecast layout! Learn more

10-Day Weather Forecast

Advertisements
Track Severe Weather on mobile